sensor_id;sensor_type;location;lat;lon;timestamp;P1;durP1;ratioP1;P2;durP2;ratioP2
36715;SDS011;22699;51.034;3.730;2023-07-28T00:00:24;4.97;;;4.43;;
36715;SDS011;22699;51.034;3.730;2023-07-28T00:02:49;5.47;;;4.97;;
36715;SDS011;22699;51.034;3.730;2023-07-28T00:05:18;6.50;;;4.25;;
36715;SDS011;22699;51.034;3.730;2023-07-28T00:07:44;7.43;;;4.40;;
36715;SDS011;22699;51.034;3.730;2023-07-28T00:10:10;7.72;;;4.45;;
36715;SDS011;22699;51.034;3.730;2023-07-28T00:12:50;4.82;;;4.43;;
36715;SDS011;22699;51.034;3.730;2023-07-28T00:37:44;7.43;;;5.90;;
36715;SDS011;22699;51.034;3.730;2023-07-28T00:40:09;7.25;;;5.53;;
36715;SDS011;22699;51.034;3.730;2023-07-28T00:42:36;6.88;;;6.18;;
36715;SDS011;22699;51.034;3.730;2023-07-28T00:45:02;6.50;;;5.57;;
36715;SDS011;22699;51.034;3.730;2023-07-28T00:47:28;6.82;;;6.15;;
36715;SDS011;22699;51.034;3.730;2023-07-28T00:49:53;7.45;;;5.80;;
36715;SDS011;22699;51.034;3.730;2023-07-28T00:52:19;6.53;;;5.70;;
36715;SDS011;22699;51.034;3.730;2023-07-28T00:54:45;8.40;;;5.85;;
36715;SDS011;22699;51.034;3.730;2023-07-28T00:57:10;8.27;;;5.60;;
36715;SDS011;22699;51.034;3.730;2023-07-28T00:59:36;7.28;;;5.40;;
36715;SDS011;22699;51.034;3.730;2023-07-28T01:02:02;6.85;;;6.15;;
36715;SDS011;22699;51.034;3.730;2023-07-28T01:04:28;6.63;;;5.97;;
36715;SDS011;22699;51.034;3.730;2023-07-28T01:07:01;8.73;;;6.30;;
36715;SDS011;22699;51.034;3.730;2023-07-28T01:09:39;6.13;;;5.53;;
36715;SDS011;22699;51.034;3.730;2023-07-28T01:12:22;6.85;;;5.60;;
36715;SDS011;22699;51.034;3.730;2023-07-28T01:14:49;7.45;;;5.60;;
36715;SDS011;22699;51.034;3.730;2023-07-28T01:17:14;8.07;;;5.28;;
36715;SDS011;22699;51.034;3.730;2023-07-28T01:19:40;5.20;;;4.70;;
36715;SDS011;22699;51.034;3.730;2023-07-28T01:27:50;6.10;;;4.70;;
36715;SDS011;22699;51.034;3.730;2023-07-28T01:30:18;7.70;;;4.90;;
36715;SDS011;22699;51.034;3.730;2023-07-28T01:32:46;7.63;;;4.60;;
36715;SDS011;22699;51.034;3.730;2023-07-28T01:35:12;5.57;;;4.07;;
36715;SDS011;22699;51.034;3.730;2023-07-28T01:37:38;6.88;;;4.68;;
36715;SDS011;22699;51.034;3.730;2023-07-28T01:40:04;7.30;;;4.65;;
36715;SDS011;22699;51.034;3.730;2023-07-28T01:42:30;5.75;;;5.05;;
36715;SDS011;22699;51.034;3.730;2023-07-28T01:44:55;7.18;;;4.60;;
36715;SDS011;22699;51.034;3.730;2023-07-28T01:47:21;8.45;;;5.22;;
36715;SDS011;22699;51.034;3.730;2023-07-28T01:49:47;5.82;;;4.93;;
36715;SDS011;22699;51.034;3.730;2023-07-28T01:52:12;6.63;;;4.85;;
36715;SDS011;22699;51.034;3.730;2023-07-28T01:54:38;6.60;;;5.30;;
36715;SDS011;22699;51.034;3.730;2023-07-28T01:57:04;5.70;;;4.85;;
36715;SDS011;22699;51.034;3.730;2023-07-28T01:59:29;5.60;;;4.97;;
36715;SDS011;22699;51.034;3.730;2023-07-28T02:01:55;6.82;;;5.35;;
36715;SDS011;22699;51.034;3.730;2023-07-28T02:04:21;8.73;;;4.95;;
36715;SDS011;22699;51.034;3.730;2023-07-28T02:06:46;9.10;;;5.32;;
36715;SDS011;22699;51.034;3.730;2023-07-28T02:09:12;4.65;;;4.07;;
36715;SDS011;22699;51.034;3.730;2023-07-28T02:11:37;7.47;;;4.57;;
36715;SDS011;22699;51.034;3.730;2023-07-28T02:14:03;5.50;;;4.05;;
36715;SDS011;22699;51.034;3.730;2023-07-28T02:16:29;4.80;;;4.30;;
36715;SDS011;22699;51.034;3.730;2023-07-28T02:18:55;5.53;;;3.80;;
36715;SDS011;22699;51.034;3.730;2023-07-28T02:21:21;3.38;;;3.05;;
36715;SDS011;22699;51.034;3.730;2023-07-28T02:23:47;8.48;;;3.47;;
36715;SDS011;22699;51.034;3.730;2023-07-28T02:26:13;4.60;;;3.03;;
36715;SDS011;22699;51.034;3.730;2023-07-28T02:28:38;7.10;;;3.17;;
36715;SDS011;22699;51.034;3.730;2023-07-28T02:31:05;4.40;;;3.50;;
36715;SDS011;22699;51.034;3.730;2023-07-28T02:36:04;3.83;;;3.03;;
36715;SDS011;22699;51.034;3.730;2023-07-28T02:38:31;6.45;;;3.40;;
36715;SDS011;22699;51.034;3.730;2023-07-28T02:40:57;5.63;;;3.00;;
36715;SDS011;22699;51.034;3.730;2023-07-28T02:43:23;4.85;;;2.50;;
36715;SDS011;22699;51.034;3.730;2023-07-28T02:48:27;3.60;;;2.42;;
36715;SDS011;22699;51.034;3.730;2023-07-28T02:50:53;3.97;;;2.20;;
36715;SDS011;22699;51.034;3.730;2023-07-28T02:53:20;6.38;;;2.20;;
36715;SDS011;22699;51.034;3.730;2023-07-28T02:55:52;7.15;;;2.55;;
36715;SDS011;22699;51.034;3.730;2023-07-28T02:58:24;5.32;;;2.75;;
36715;SDS011;22699;51.034;3.730;2023-07-28T03:00:51;3.63;;;2.08;;
36715;SDS011;22699;51.034;3.730;2023-07-28T03:03:20;17.17;;;2.88;;
36715;SDS011;22699;51.034;3.730;2023-07-28T03:05:46;3.17;;;2.60;;
36715;SDS011;22699;51.034;3.730;2023-07-28T03:08:20;3.17;;;2.35;;
36715;SDS011;22699;51.034;3.730;2023-07-28T03:10:48;2.83;;;2.17;;
36715;SDS011;22699;51.034;3.730;2023-07-28T03:13:15;3.72;;;1.98;;
36715;SDS011;22699;51.034;3.730;2023-07-28T03:15:40;2.53;;;2.10;;
36715;SDS011;22699;51.034;3.730;2023-07-28T03:18:06;3.08;;;2.10;;
36715;SDS011;22699;51.034;3.730;2023-07-28T03:20:31;2.63;;;2.42;;
36715;SDS011;22699;51.034;3.730;2023-07-28T03:23:00;3.72;;;2.30;;
36715;SDS011;22699;51.034;3.730;2023-07-28T03:25:26;3.20;;;2.10;;
36715;SDS011;22699;51.034;3.730;2023-07-28T03:27:54;3.80;;;1.92;;
36715;SDS011;22699;51.034;3.730;2023-07-28T03:32:50;3.00;;;1.80;;
36715;SDS011;22699;51.034;3.730;2023-07-28T03:35:15;2.47;;;1.92;;
36715;SDS011;22699;51.034;3.730;2023-07-28T03:37:41;3.35;;;1.98;;
36715;SDS011;22699;51.034;3.730;2023-07-28T03:40:07;4.22;;;1.60;;
36715;SDS011;22699;51.034;3.730;2023-07-28T03:42:34;2.20;;;1.70;;
36715;SDS011;22699;51.034;3.730;2023-07-28T03:44:59;2.00;;;1.60;;
36715;SDS011;22699;51.034;3.730;2023-07-28T03:49:56;2.50;;;1.70;;
36715;SDS011;22699;51.034;3.730;2023-07-28T03:52:24;2.45;;;1.80;;
36715;SDS011;22699;51.034;3.730;2023-07-28T03:54:51;2.05;;;1.70;;
36715;SDS011;22699;51.034;3.730;2023-07-28T03:57:19;2.97;;;2.08;;
36715;SDS011;22699;51.034;3.730;2023-07-28T03:59:44;2.20;;;1.80;;
36715;SDS011;22699;51.034;3.730;2023-07-28T04:02:10;3.65;;;2.33;;
36715;SDS011;22699;51.034;3.730;2023-07-28T04:04:35;2.00;;;1.90;;
36715;SDS011;22699;51.034;3.730;2023-07-28T04:07:01;2.35;;;2.15;;
36715;SDS011;22699;51.034;3.730;2023-07-28T04:09:27;3.03;;;2.05;;
36715;SDS011;22699;51.034;3.730;2023-07-28T04:11:53;4.80;;;2.72;;
36715;SDS011;22699;51.034;3.730;2023-07-28T04:14:18;4.20;;;3.15;;
36715;SDS011;22699;51.034;3.730;2023-07-28T04:16:44;4.43;;;3.13;;
36715;SDS011;22699;51.034;3.730;2023-07-28T04:19:10;3.55;;;3.25;;
36715;SDS011;22699;51.034;3.730;2023-07-28T04:21:35;5.30;;;3.97;;
36715;SDS011;22699;51.034;3.730;2023-07-28T04:24:05;3.70;;;3.30;;
36715;SDS011;22699;51.034;3.730;2023-07-28T04:26:31;4.55;;;3.13;;
36715;SDS011;22699;51.034;3.730;2023-07-28T04:28:57;3.45;;;3.15;;
36715;SDS011;22699;51.034;3.730;2023-07-28T04:31:23;5.45;;;3.67;;
36715;SDS011;22699;51.034;3.730;2023-07-28T04:33:49;5.85;;;3.67;;
36715;SDS011;22699;51.034;3.730;2023-07-28T04:36:16;5.30;;;3.53;;
36715;SDS011;22699;51.034;3.730;2023-07-28T04:38:42;5.88;;;3.53;;
36715;SDS011;22699;51.034;3.730;2023-07-28T04:41:07;4.88;;;3.42;;
36715;SDS011;22699;51.034;3.730;2023-07-28T04:43:33;5.45;;;3.80;;
36715;SDS011;22699;51.034;3.730;2023-07-28T04:45:58;3.97;;;3.40;;
36715;SDS011;22699;51.034;3.730;2023-07-28T04:48:24;4.07;;;3.78;;
36715;SDS011;22699;51.034;3.730;2023-07-28T04:50:50;3.65;;;3.35;;
36715;SDS011;22699;51.034;3.730;2023-07-28T04:53:15;4.95;;;3.45;;
36715;SDS011;22699;51.034;3.730;2023-07-28T04:55:41;5.90;;;3.60;;
36715;SDS011;22699;51.034;3.730;2023-07-28T04:58:08;3.80;;;3.33;;
36715;SDS011;22699;51.034;3.730;2023-07-28T05:00:34;4.18;;;3.78;;
36715;SDS011;22699;51.034;3.730;2023-07-28T05:03:02;4.50;;;3.67;;
36715;SDS011;22699;51.034;3.730;2023-07-28T05:05:29;4.53;;;3.50;;
36715;SDS011;22699;51.034;3.730;2023-07-28T05:07:54;4.00;;;3.60;;
36715;SDS011;22699;51.034;3.730;2023-07-28T05:10:20;5.80;;;3.60;;
36715;SDS011;22699;51.034;3.730;2023-07-28T05:12:46;5.40;;;4.05;;
36715;SDS011;22699;51.034;3.730;2023-07-28T05:15:13;4.70;;;4.25;;
36715;SDS011;22699;51.034;3.730;2023-07-28T05:17:40;6.05;;;3.92;;
36715;SDS011;22699;51.034;3.730;2023-07-28T05:20:05;5.07;;;4.00;;
36715;SDS011;22699;51.034;3.730;2023-07-28T05:22:31;4.63;;;4.22;;
36715;SDS011;22699;51.034;3.730;2023-07-28T05:24:57;3.90;;;3.60;;
36715;SDS011;22699;51.034;3.730;2023-07-28T05:27:22;48.80;;;21.45;;
36715;SDS011;22699;51.034;3.730;2023-07-28T05:29:48;7.82;;;4.47;;
36715;SDS011;22699;51.034;3.730;2023-07-28T05:32:14;4.32;;;3.80;;
36715;SDS011;22699;51.034;3.730;2023-07-28T05:34:43;4.50;;;4.13;;
36715;SDS011;22699;51.034;3.730;2023-07-28T05:37:09;4.17;;;3.60;;
36715;SDS011;22699;51.034;3.730;2023-07-28T05:39:35;6.13;;;4.25;;
36715;SDS011;22699;51.034;3.730;2023-07-28T05:42:00;6.88;;;4.00;;
36715;SDS011;22699;51.034;3.730;2023-07-28T05:44:26;4.57;;;4.03;;
36715;SDS011;22699;51.034;3.730;2023-07-28T05:46:52;5.35;;;3.60;;
36715;SDS011;22699;51.034;3.730;2023-07-28T05:49:18;4.70;;;3.22;;
36715;SDS011;22699;51.034;3.730;2023-07-28T05:51:44;6.55;;;3.60;;
36715;SDS011;22699;51.034;3.730;2023-07-28T05:54:09;5.22;;;3.00;;
36715;SDS011;22699;51.034;3.730;2023-07-28T05:56:36;4.25;;;3.35;;
36715;SDS011;22699;51.034;3.730;2023-07-28T05:59:02;6.65;;;2.85;;
36715;SDS011;22699;51.034;3.730;2023-07-28T06:01:27;3.83;;;2.47;;
36715;SDS011;22699;51.034;3.730;2023-07-28T06:03:56;2.55;;;1.92;;
36715;SDS011;22699;51.034;3.730;2023-07-28T06:06:24;2.22;;;2.00;;
36715;SDS011;22699;51.034;3.730;2023-07-28T06:08:51;3.92;;;2.05;;
36715;SDS011;22699;51.034;3.730;2023-07-28T06:11:18;3.40;;;2.08;;
36715;SDS011;22699;51.034;3.730;2023-07-28T06:13:46;3.10;;;2.50;;
36715;SDS011;22699;51.034;3.730;2023-07-28T06:16:12;3.30;;;2.63;;
36715;SDS011;22699;51.034;3.730;2023-07-28T06:18:41;2.83;;;2.42;;
36715;SDS011;22699;51.034;3.730;2023-07-28T06:21:06;4.07;;;2.42;;
36715;SDS011;22699;51.034;3.730;2023-07-28T06:23:32;3.05;;;2.50;;
36715;SDS011;22699;51.034;3.730;2023-07-28T06:25:58;6.57;;;2.95;;
36715;SDS011;22699;51.034;3.730;2023-07-28T06:28:24;2.95;;;2.47;;
36715;SDS011;22699;51.034;3.730;2023-07-28T06:30:53;5.68;;;2.90;;
36715;SDS011;22699;51.034;3.730;2023-07-28T06:33:20;6.30;;;3.30;;
36715;SDS011;22699;51.034;3.730;2023-07-28T06:35:46;3.92;;;3.45;;
36715;SDS011;22699;51.034;3.730;2023-07-28T06:38:12;5.70;;;3.17;;
36715;SDS011;22699;51.034;3.730;2023-07-28T06:40:38;5.70;;;3.38;;
36715;SDS011;22699;51.034;3.730;2023-07-28T06:43:03;3.30;;;2.53;;
36715;SDS011;22699;51.034;3.730;2023-07-28T06:45:29;3.97;;;2.40;;
36715;SDS011;22699;51.034;3.730;2023-07-28T06:47:54;4.63;;;3.13;;
36715;SDS011;22699;51.034;3.730;2023-07-28T06:50:20;3.97;;;2.90;;
36715;SDS011;22699;51.034;3.730;2023-07-28T06:52:46;4.55;;;2.78;;
36715;SDS011;22699;51.034;3.730;2023-07-28T06:55:13;5.47;;;3.00;;
36715;SDS011;22699;51.034;3.730;2023-07-28T06:57:45;7.75;;;3.10;;
36715;SDS011;22699;51.034;3.730;2023-07-28T07:00:13;4.90;;;2.60;;
36715;SDS011;22699;51.034;3.730;2023-07-28T07:02:40;3.50;;;2.72;;
36715;SDS011;22699;51.034;3.730;2023-07-28T07:05:06;3.42;;;2.45;;
36715;SDS011;22699;51.034;3.730;2023-07-28T07:07:32;4.78;;;2.28;;
36715;SDS011;22699;51.034;3.730;2023-07-28T07:09:58;4.53;;;2.30;;
36715;SDS011;22699;51.034;3.730;2023-07-28T07:12:30;3.67;;;2.45;;
36715;SDS011;22699;51.034;3.730;2023-07-28T07:14:55;3.75;;;1.98;;
36715;SDS011;22699;51.034;3.730;2023-07-28T07:17:21;6.70;;;2.22;;
36715;SDS011;22699;51.034;3.730;2023-07-28T07:19:47;3.85;;;2.00;;
36715;SDS011;22699;51.034;3.730;2023-07-28T07:22:12;4.07;;;2.38;;
36715;SDS011;22699;51.034;3.730;2023-07-28T07:24:38;3.42;;;2.50;;
36715;SDS011;22699;51.034;3.730;2023-07-28T07:27:04;4.70;;;2.28;;
36715;SDS011;22699;51.034;3.730;2023-07-28T07:29:30;5.50;;;2.38;;
36715;SDS011;22699;51.034;3.730;2023-07-28T07:31:55;5.53;;;2.47;;
36715;SDS011;22699;51.034;3.730;2023-07-28T07:34:22;6.20;;;2.58;;
36715;SDS011;22699;51.034;3.730;2023-07-28T07:36:48;6.22;;;2.58;;
36715;SDS011;22699;51.034;3.730;2023-07-28T07:39:14;4.40;;;2.53;;
36715;SDS011;22699;51.034;3.730;2023-07-28T07:41:40;7.43;;;2.60;;
36715;SDS011;22699;51.034;3.730;2023-07-28T07:44:06;3.40;;;1.90;;
36715;SDS011;22699;51.034;3.730;2023-07-28T07:46:32;3.40;;;1.77;;
36715;SDS011;22699;51.034;3.730;2023-07-28T07:48:58;4.32;;;2.15;;
36715;SDS011;22699;51.034;3.730;2023-07-28T07:51:24;5.57;;;2.38;;
36715;SDS011;22699;51.034;3.730;2023-07-28T07:53:52;6.57;;;2.22;;
36715;SDS011;22699;51.034;3.730;2023-07-28T07:56:20;3.25;;;2.03;;
36715;SDS011;22699;51.034;3.730;2023-07-28T07:58:45;7.68;;;2.78;;
36715;SDS011;22699;51.034;3.730;2023-07-28T08:01:11;6.43;;;2.85;;
36715;SDS011;22699;51.034;3.730;2023-07-28T08:03:39;4.38;;;2.28;;
36715;SDS011;22699;51.034;3.730;2023-07-28T08:06:04;5.15;;;2.60;;
36715;SDS011;22699;51.034;3.730;2023-07-28T08:08:30;4.72;;;2.33;;
36715;SDS011;22699;51.034;3.730;2023-07-28T08:10:56;4.75;;;2.35;;
36715;SDS011;22699;51.034;3.730;2023-07-28T08:13:22;4.45;;;2.80;;
36715;SDS011;22699;51.034;3.730;2023-07-28T08:15:47;4.60;;;1.98;;
36715;SDS011;22699;51.034;3.730;2023-07-28T08:18:13;5.53;;;2.10;;
36715;SDS011;22699;51.034;3.730;2023-07-28T08:20:39;3.67;;;2.42;;
36715;SDS011;22699;51.034;3.730;2023-07-28T08:23:05;4.10;;;2.10;;
36715;SDS011;22699;51.034;3.730;2023-07-28T08:25:34;3.92;;;2.30;;
36715;SDS011;22699;51.034;3.730;2023-07-28T08:28:00;5.80;;;2.78;;
36715;SDS011;22699;51.034;3.730;2023-07-28T08:30:26;9.70;;;3.00;;
36715;SDS011;22699;51.034;3.730;2023-07-28T08:32:51;4.03;;;2.80;;
36715;SDS011;22699;51.034;3.730;2023-07-28T08:37:45;3.00;;;2.35;;
36715;SDS011;22699;51.034;3.730;2023-07-28T08:40:11;4.38;;;2.47;;
36715;SDS011;22699;51.034;3.730;2023-07-28T08:42:43;6.72;;;2.88;;
36715;SDS011;22699;51.034;3.730;2023-07-28T08:45:09;3.42;;;2.45;;
36715;SDS011;22699;51.034;3.730;2023-07-28T08:47:36;4.82;;;2.97;;
36715;SDS011;22699;51.034;3.730;2023-07-28T08:50:03;7.22;;;3.00;;
36715;SDS011;22699;51.034;3.730;2023-07-28T08:52:30;4.10;;;2.38;;
36715;SDS011;22699;51.034;3.730;2023-07-28T08:54:58;4.50;;;2.28;;
36715;SDS011;22699;51.034;3.730;2023-07-28T08:57:24;3.03;;;2.17;;
36715;SDS011;22699;51.034;3.730;2023-07-28T08:59:51;3.20;;;2.50;;
36715;SDS011;22699;51.034;3.730;2023-07-28T09:02:19;4.32;;;2.42;;
36715;SDS011;22699;51.034;3.730;2023-07-28T09:04:47;4.30;;;2.30;;
36715;SDS011;22699;51.034;3.730;2023-07-28T09:07:13;3.25;;;2.22;;
36715;SDS011;22699;51.034;3.730;2023-07-28T09:09:39;4.68;;;2.35;;
36715;SDS011;22699;51.034;3.730;2023-07-28T09:12:05;3.17;;;1.80;;
36715;SDS011;22699;51.034;3.730;2023-07-28T09:14:32;2.63;;;2.10;;
36715;SDS011;22699;51.034;3.730;2023-07-28T09:17:20;3.60;;;1.90;;
36715;SDS011;22699;51.034;3.730;2023-07-28T09:19:50;2.40;;;1.95;;
36715;SDS011;22699;51.034;3.730;2023-07-28T09:22:19;3.85;;;1.95;;
36715;SDS011;22699;51.034;3.730;2023-07-28T09:24:46;3.42;;;1.75;;
36715;SDS011;22699;51.034;3.730;2023-07-28T09:27:23;2.55;;;1.52;;
36715;SDS011;22699;51.034;3.730;2023-07-28T09:29:54;2.47;;;1.70;;
36715;SDS011;22699;51.034;3.730;2023-07-28T09:32:31;2.45;;;1.55;;
36715;SDS011;22699;51.034;3.730;2023-07-28T09:35:05;5.43;;;1.75;;
36715;SDS011;22699;51.034;3.730;2023-07-28T09:37:36;2.80;;;1.85;;
36715;SDS011;22699;51.034;3.730;2023-07-28T09:40:04;2.10;;;1.90;;
36715;SDS011;22699;51.034;3.730;2023-07-28T09:42:44;2.05;;;1.38;;
36715;SDS011;22699;51.034;3.730;2023-07-28T09:45:14;4.50;;;1.95;;
36715;SDS011;22699;51.034;3.730;2023-07-28T09:47:41;4.00;;;2.00;;
36715;SDS011;22699;51.034;3.730;2023-07-28T09:50:10;4.15;;;2.10;;
36715;SDS011;22699;51.034;3.730;2023-07-28T09:52:49;5.77;;;1.90;;
36715;SDS011;22699;51.034;3.730;2023-07-28T09:55:17;3.00;;;1.90;;
36715;SDS011;22699;51.034;3.730;2023-07-28T09:57:45;3.60;;;1.73;;
36715;SDS011;22699;51.034;3.730;2023-07-28T10:00:13;3.47;;;1.77;;
36715;SDS011;22699;51.034;3.730;2023-07-28T10:02:40;4.35;;;2.33;;
36715;SDS011;22699;51.034;3.730;2023-07-28T10:05:06;3.50;;;1.50;;
36715;SDS011;22699;51.034;3.730;2023-07-28T10:07:34;3.42;;;2.30;;
36715;SDS011;22699;51.034;3.730;2023-07-28T10:10:01;4.07;;;2.17;;
36715;SDS011;22699;51.034;3.730;2023-07-28T10:12:33;3.50;;;2.28;;
36715;SDS011;22699;51.034;3.730;2023-07-28T10:15:14;2.05;;;1.30;;
36715;SDS011;22699;51.034;3.730;2023-07-28T10:17:49;5.13;;;2.15;;
36715;SDS011;22699;51.034;3.730;2023-07-28T10:20:35;4.93;;;1.65;;
36715;SDS011;22699;51.034;3.730;2023-07-28T10:23:22;2.42;;;1.50;;
36715;SDS011;22699;51.034;3.730;2023-07-28T10:25:55;2.63;;;1.50;;
36715;SDS011;22699;51.034;3.730;2023-07-28T10:28:28;2.35;;;1.30;;
36715;SDS011;22699;51.034;3.730;2023-07-28T10:31:00;2.17;;;0.93;;
36715;SDS011;22699;51.034;3.730;2023-07-28T10:33:28;1.65;;;0.93;;
36715;SDS011;22699;51.034;3.730;2023-07-28T10:35:57;2.05;;;0.65;;
36715;SDS011;22699;51.034;3.730;2023-07-28T10:38:36;2.75;;;1.00;;
36715;SDS011;22699;51.034;3.730;2023-07-28T10:41:15;1.08;;;0.60;;
36715;SDS011;22699;51.034;3.730;2023-07-28T10:43:43;2.60;;;0.60;;
36715;SDS011;22699;51.034;3.730;2023-07-28T10:46:10;1.45;;;0.45;;
36715;SDS011;22699;51.034;3.730;2023-07-28T10:48:42;2.15;;;0.65;;
36715;SDS011;22699;51.034;3.730;2023-07-28T10:51:10;0.80;;;0.50;;
36715;SDS011;22699;51.034;3.730;2023-07-28T10:53:38;3.13;;;0.57;;
36715;SDS011;22699;51.034;3.730;2023-07-28T10:56:04;1.70;;;0.60;;
36715;SDS011;22699;51.034;3.730;2023-07-28T10:58:33;4.10;;;0.80;;
36715;SDS011;22699;51.034;3.730;2023-07-28T11:01:00;2.60;;;0.70;;
36715;SDS011;22699;51.034;3.730;2023-07-28T11:03:27;3.17;;;0.73;;
36715;SDS011;22699;51.034;3.730;2023-07-28T11:05:53;3.42;;;0.93;;
36715;SDS011;22699;51.034;3.730;2023-07-28T11:08:19;3.17;;;0.80;;
36715;SDS011;22699;51.034;3.730;2023-07-28T11:10:45;2.83;;;0.85;;
36715;SDS011;22699;51.034;3.730;2023-07-28T11:13:11;3.25;;;0.90;;
36715;SDS011;22699;51.034;3.730;2023-07-28T11:15:36;1.83;;;0.90;;
36715;SDS011;22699;51.034;3.730;2023-07-28T11:18:02;2.85;;;0.82;;
36715;SDS011;22699;51.034;3.730;2023-07-28T11:20:29;1.00;;;0.90;;
36715;SDS011;22699;51.034;3.730;2023-07-28T11:25:22;4.47;;;1.38;;
36715;SDS011;22699;51.034;3.730;2023-07-28T11:27:49;1.85;;;0.90;;
36715;SDS011;22699;51.034;3.730;2023-07-28T11:30:16;1.38;;;0.95;;
36715;SDS011;22699;51.034;3.730;2023-07-28T11:32:43;2.65;;;1.10;;
36715;SDS011;22699;51.034;3.730;2023-07-28T11:35:11;4.72;;;1.13;;
36715;SDS011;22699;51.034;3.730;2023-07-28T11:37:38;4.18;;;1.20;;
36715;SDS011;22699;51.034;3.730;2023-07-28T11:40:06;2.15;;;1.00;;
36715;SDS011;22699;51.034;3.730;2023-07-28T11:42:35;1.55;;;0.88;;
36715;SDS011;22699;51.034;3.730;2023-07-28T11:45:07;2.53;;;0.80;;
36715;SDS011;22699;51.034;3.730;2023-07-28T11:47:34;4.38;;;0.93;;
36715;SDS011;22699;51.034;3.730;2023-07-28T11:50:00;2.45;;;0.95;;
36715;SDS011;22699;51.034;3.730;2023-07-28T11:52:36;5.15;;;1.00;;
36715;SDS011;22699;51.034;3.730;2023-07-28T11:55:04;1.73;;;0.93;;
36715;SDS011;22699;51.034;3.730;2023-07-28T11:57:31;2.43;;;1.00;;
36715;SDS011;22699;51.034;3.730;2023-07-28T11:59:58;2.55;;;0.95;;
36715;SDS011;22699;51.034;3.730;2023-07-28T12:02:29;1.65;;;1.00;;
36715;SDS011;22699;51.034;3.730;2023-07-28T12:04:56;3.15;;;1.13;;
36715;SDS011;22699;51.034;3.730;2023-07-28T12:07:29;1.98;;;1.23;;
36715;SDS011;22699;51.034;3.730;2023-07-28T12:10:02;2.83;;;1.17;;
36715;SDS011;22699;51.034;3.730;2023-07-28T12:12:31;1.48;;;0.82;;
36715;SDS011;22699;51.034;3.730;2023-07-28T12:15:17;2.30;;;1.05;;
36715;SDS011;22699;51.034;3.730;2023-07-28T12:20:33;1.63;;;1.10;;
36715;SDS011;22699;51.034;3.730;2023-07-28T12:23:04;2.67;;;0.65;;
36715;SDS011;22699;51.034;3.730;2023-07-28T12:25:30;1.63;;;0.80;;
36715;SDS011;22699;51.034;3.730;2023-07-28T12:27:56;2.58;;;0.73;;
36715;SDS011;22699;51.034;3.730;2023-07-28T12:30:23;3.90;;;1.00;;
36715;SDS011;22699;51.034;3.730;2023-07-28T12:32:49;5.03;;;1.15;;
36715;SDS011;22699;51.034;3.730;2023-07-28T12:35:15;1.58;;;0.60;;
36715;SDS011;22699;51.034;3.730;2023-07-28T12:37:41;1.83;;;0.68;;
36715;SDS011;22699;51.034;3.730;2023-07-28T12:40:07;3.88;;;0.80;;
36715;SDS011;22699;51.034;3.730;2023-07-28T12:42:33;2.47;;;0.70;;
36715;SDS011;22699;51.034;3.730;2023-07-28T12:44:59;1.50;;;0.80;;
36715;SDS011;22699;51.034;3.730;2023-07-28T12:47:25;2.00;;;0.98;;
36715;SDS011;22699;51.034;3.730;2023-07-28T12:49:51;2.50;;;0.80;;
36715;SDS011;22699;51.034;3.730;2023-07-28T12:52:16;2.55;;;0.70;;
36715;SDS011;22699;51.034;3.730;2023-07-28T12:54:42;1.90;;;0.88;;
36715;SDS011;22699;51.034;3.730;2023-07-28T12:57:08;1.73;;;0.70;;
36715;SDS011;22699;51.034;3.730;2023-07-28T12:59:35;1.33;;;1.02;;
36715;SDS011;22699;51.034;3.730;2023-07-28T13:02:01;1.42;;;0.98;;
36715;SDS011;22699;51.034;3.730;2023-07-28T13:04:27;1.20;;;0.77;;
36715;SDS011;22699;51.034;3.730;2023-07-28T13:06:53;1.52;;;0.68;;
36715;SDS011;22699;51.034;3.730;2023-07-28T13:09:19;2.60;;;0.80;;
36715;SDS011;22699;51.034;3.730;2023-07-28T13:11:44;2.63;;;0.88;;
36715;SDS011;22699;51.034;3.730;2023-07-28T13:14:10;2.33;;;1.00;;
36715;SDS011;22699;51.034;3.730;2023-07-28T13:16:35;1.27;;;0.70;;
36715;SDS011;22699;51.034;3.730;2023-07-28T13:19:02;4.18;;;0.98;;
36715;SDS011;22699;51.034;3.730;2023-07-28T13:21:31;1.95;;;0.68;;
36715;SDS011;22699;51.034;3.730;2023-07-28T13:23:58;1.65;;;0.80;;
36715;SDS011;22699;51.034;3.730;2023-07-28T13:26:23;1.80;;;0.90;;
36715;SDS011;22699;51.034;3.730;2023-07-28T13:28:50;1.65;;;0.82;;
36715;SDS011;22699;51.034;3.730;2023-07-28T13:31:16;1.75;;;0.90;;
36715;SDS011;22699;51.034;3.730;2023-07-28T13:33:42;2.20;;;0.90;;
36715;SDS011;22699;51.034;3.730;2023-07-28T13:36:08;2.63;;;1.00;;
36715;SDS011;22699;51.034;3.730;2023-07-28T13:38:34;1.80;;;0.77;;
36715;SDS011;22699;51.034;3.730;2023-07-28T13:41:00;2.25;;;1.02;;
36715;SDS011;22699;51.034;3.730;2023-07-28T13:43:28;1.65;;;0.80;;
36715;SDS011;22699;51.034;3.730;2023-07-28T13:45:54;3.97;;;0.80;;
36715;SDS011;22699;51.034;3.730;2023-07-28T13:48:19;2.13;;;0.98;;
36715;SDS011;22699;51.034;3.730;2023-07-28T13:50:45;1.85;;;1.00;;
36715;SDS011;22699;51.034;3.730;2023-07-28T13:53:11;3.38;;;0.93;;
36715;SDS011;22699;51.034;3.730;2023-07-28T13:55:36;2.33;;;1.10;;
36715;SDS011;22699;51.034;3.730;2023-07-28T13:58:03;4.22;;;0.82;;
36715;SDS011;22699;51.034;3.730;2023-07-28T14:00:29;2.90;;;1.10;;
36715;SDS011;22699;51.034;3.730;2023-07-28T14:02:54;2.15;;;1.08;;
36715;SDS011;22699;51.034;3.730;2023-07-28T14:05:20;4.50;;;1.10;;
36715;SDS011;22699;51.034;3.730;2023-07-28T14:07:47;1.02;;;0.70;;
36715;SDS011;22699;51.034;3.730;2023-07-28T14:10:14;1.13;;;0.80;;
36715;SDS011;22699;51.034;3.730;2023-07-28T14:12:39;1.55;;;1.00;;
36715;SDS011;22699;51.034;3.730;2023-07-28T14:15:06;1.92;;;0.65;;
36715;SDS011;22699;51.034;3.730;2023-07-28T14:17:32;3.90;;;0.85;;
36715;SDS011;22699;51.034;3.730;2023-07-28T14:19:58;3.83;;;0.82;;
36715;SDS011;22699;51.034;3.730;2023-07-28T14:22:23;1.20;;;0.80;;
36715;SDS011;22699;51.034;3.730;2023-07-28T14:24:49;2.83;;;0.80;;
36715;SDS011;22699;51.034;3.730;2023-07-28T14:27:15;2.28;;;0.93;;
36715;SDS011;22699;51.034;3.730;2023-07-28T14:29:41;1.92;;;0.98;;
36715;SDS011;22699;51.034;3.730;2023-07-28T14:32:06;2.45;;;1.02;;
36715;SDS011;22699;51.034;3.730;2023-07-28T14:34:33;1.45;;;0.80;;
36715;SDS011;22699;51.034;3.730;2023-07-28T14:37:00;0.60;;;0.60;;
36715;SDS011;22699;51.034;3.730;2023-07-28T14:39:28;2.58;;;0.90;;
36715;SDS011;22699;51.034;3.730;2023-07-28T14:41:53;2.20;;;0.60;;
36715;SDS011;22699;51.034;3.730;2023-07-28T14:44:20;2.40;;;0.90;;
36715;SDS011;22699;51.034;3.730;2023-07-28T14:46:46;2.50;;;1.00;;
36715;SDS011;22699;51.034;3.730;2023-07-28T14:49:11;1.00;;;0.70;;
36715;SDS011;22699;51.034;3.730;2023-07-28T14:51:37;1.52;;;0.90;;
36715;SDS011;22699;51.034;3.730;2023-07-28T14:54:02;3.63;;;0.80;;
36715;SDS011;22699;51.034;3.730;2023-07-28T14:56:28;2.95;;;0.90;;
36715;SDS011;22699;51.034;3.730;2023-07-28T14:58:54;1.73;;;0.80;;
36715;SDS011;22699;51.034;3.730;2023-07-28T15:01:21;2.70;;;0.80;;
36715;SDS011;22699;51.034;3.730;2023-07-28T15:03:46;1.35;;;0.73;;
36715;SDS011;22699;51.034;3.730;2023-07-28T15:06:12;4.05;;;0.80;;
36715;SDS011;22699;51.034;3.730;2023-07-28T15:08:37;1.42;;;0.93;;
36715;SDS011;22699;51.034;3.730;2023-07-28T15:11:03;2.60;;;0.98;;
36715;SDS011;22699;51.034;3.730;2023-07-28T15:13:29;2.08;;;0.80;;
36715;SDS011;22699;51.034;3.730;2023-07-28T15:15:54;3.08;;;1.00;;
36715;SDS011;22699;51.034;3.730;2023-07-28T15:18:20;2.03;;;0.90;;
36715;SDS011;22699;51.034;3.730;2023-07-28T15:20:46;1.45;;;0.77;;
36715;SDS011;22699;51.034;3.730;2023-07-28T15:23:11;3.13;;;0.75;;
36715;SDS011;22699;51.034;3.730;2023-07-28T15:25:37;2.58;;;1.00;;
36715;SDS011;22699;51.034;3.730;2023-07-28T15:28:11;1.30;;;0.82;;
36715;SDS011;22699;51.034;3.730;2023-07-28T15:30:37;2.55;;;0.73;;
36715;SDS011;22699;51.034;3.730;2023-07-28T15:33:03;1.20;;;0.80;;